Boston Harbor, Washington
Current Conditions -  °F | °C
As of 11:54 PM on Thursday 23 Oct 2014 (Local Time) from KOLM Reporting Station
Light Rain Light Rain  
Wind Chill: 48°   Ceiling: 4900
Heat Index: 48°   Visibility: 5mi
Dew Point: 47°   Wind: 3mph
Humidity: 96%   Direction: 160°SSE
Pressure: 30"   Gusts: NA
Location:  46.9755°N, 122.872°W
Report Text: KOLM 240654Z AUTO 16003KT 5SM -RA BR OVC049 09/08 A3000 RMK AO2 SLP160 P0008 T00890083
Loading
Personal Weather Stations






























Interactive Weather Map
Tropical Storm Tracking
New forecast layout! Learn more

10-Day Weather Forecast

Advertisements
Track Severe Weather on mobile